sensor_id;sensor_type;location;lat;lon;timestamp;pressure;altitude;pressure_sealevel;temperature;humidity
14393;BME280;7281;42.678;23.372;2022-09-29T00:02:09;94194.00;;;21.48;47.99
14393;BME280;7281;42.678;23.372;2022-09-29T00:04:36;94203.97;;;22.06;47.26
14393;BME280;7281;42.678;23.372;2022-09-29T00:07:03;94200.06;;;22.19;47.56
14393;BME280;7281;42.678;23.372;2022-09-29T00:09:30;94205.56;;;22.10;46.58
14393;BME280;7281;42.678;23.372;2022-09-29T00:11:57;94213.81;;;21.90;47.60
14393;BME280;7281;42.678;23.372;2022-09-29T00:14:24;94219.63;;;21.52;48.00
14393;BME280;7281;42.678;23.372;2022-09-29T00:16:52;94206.50;;;21.87;47.31
14393;BME280;7281;42.678;23.372;2022-09-29T00:19:19;94193.88;;;22.15;46.88
14393;BME280;7281;42.678;23.372;2022-09-29T00:21:45;94200.25;;;22.26;47.08
14393;BME280;7281;42.678;23.372;2022-09-29T00:24:12;94201.78;;;22.27;47.18
14393;BME280;7281;42.678;23.372;2022-09-29T00:26:39;94189.13;;;21.93;46.38
14393;BME280;7281;42.678;23.372;2022-09-29T00:29:08;94208.06;;;22.19;45.92
14393;BME280;7281;42.678;23.372;2022-09-29T00:31:35;94222.38;;;22.11;45.98
14393;BME280;7281;42.678;23.372;2022-09-29T00:34:02;94214.69;;;21.94;46.46
14393;BME280;7281;42.678;23.372;2022-09-29T00:36:29;94201.94;;;22.03;46.82
14393;BME280;7281;42.678;23.372;2022-09-29T00:38:57;94175.78;;;22.08;46.68
14393;BME280;7281;42.678;23.372;2022-09-29T00:41:30;94185.94;;;22.03;47.22
14393;BME280;7281;42.678;23.372;2022-09-29T00:46:48;94190.31;;;20.73;49.82
14393;BME280;7281;42.678;23.372;2022-09-29T00:52:08;94189.53;;;21.79;48.03
14393;BME280;7281;42.678;23.372;2022-09-29T00:54:43;94204.88;;;21.98;48.18
14393;BME280;7281;42.678;23.372;2022-09-29T00:57:13;94202.91;;;21.67;48.32
14393;BME280;7281;42.678;23.372;2022-09-29T00:59:46;94212.94;;;21.31;49.52
14393;BME280;7281;42.678;23.372;2022-09-29T01:02:16;94192.00;;;21.72;48.24
14393;BME280;7281;42.678;23.372;2022-09-29T01:04:46;94191.44;;;22.10;47.59
14393;BME280;7281;42.678;23.372;2022-09-29T01:07:13;94186.22;;;21.98;47.41
14393;BME280;7281;42.678;23.372;2022-09-29T01:09:42;94184.53;;;21.23;49.51
14393;BME280;7281;42.678;23.372;2022-09-29T01:12:09;94172.81;;;21.67;48.13
14393;BME280;7281;42.678;23.372;2022-09-29T01:14:37;94181.31;;;22.00;47.62
14393;BME280;7281;42.678;23.372;2022-09-29T01:17:04;94196.84;;;20.75;51.06
14393;BME280;7281;42.678;23.372;2022-09-29T01:34:03;94201.78;;;21.96;47.51
14393;BME280;7281;42.678;23.372;2022-09-29T01:36:47;94195.75;;;21.99;47.27
14393;BME280;7281;42.678;23.372;2022-09-29T01:39:24;94198.19;;;22.04;47.26
14393;BME280;7281;42.678;23.372;2022-09-29T01:42:18;94197.72;;;21.86;47.04
14393;BME280;7281;42.678;23.372;2022-09-29T01:47:21;94159.03;;;21.65;47.01
14393;BME280;7281;42.678;23.372;2022-09-29T01:49:56;94218.75;;;21.76;47.54
14393;BME280;7281;42.678;23.372;2022-09-29T01:52:29;94217.75;;;21.53;48.19
14393;BME280;7281;42.678;23.372;2022-09-29T01:55:07;94214.78;;;21.70;47.59
14393;BME280;7281;42.678;23.372;2022-09-29T02:00:19;94227.41;;;21.85;47.67
14393;BME280;7281;42.678;23.372;2022-09-29T02:07:55;94218.97;;;21.83;48.26
14393;BME280;7281;42.678;23.372;2022-09-29T02:10:28;94224.16;;;22.07;48.05
14393;BME280;7281;42.678;23.372;2022-09-29T02:12:56;94219.69;;;22.11;47.43
14393;BME280;7281;42.678;23.372;2022-09-29T02:15:30;94212.63;;;22.03;47.83
14393;BME280;7281;42.678;23.372;2022-09-29T02:18:01;94216.06;;;22.19;47.67
14393;BME280;7281;42.678;23.372;2022-09-29T02:20:28;94210.31;;;21.74;48.52
14393;BME280;7281;42.678;23.372;2022-09-29T02:22:56;94233.31;;;21.78;48.89
14393;BME280;7281;42.678;23.372;2022-09-29T02:25:23;94226.22;;;21.70;48.66
14393;BME280;7281;42.678;23.372;2022-09-29T02:27:51;94221.41;;;21.76;48.31
14393;BME280;7281;42.678;23.372;2022-09-29T02:30:18;94226.84;;;21.52;48.54
14393;BME280;7281;42.678;23.372;2022-09-29T02:32:46;94226.50;;;21.53;48.17
14393;BME280;7281;42.678;23.372;2022-09-29T02:35:13;94236.00;;;21.66;48.35
14393;BME280;7281;42.678;23.372;2022-09-29T02:38:03;94241.94;;;21.60;48.30
14393;BME280;7281;42.678;23.372;2022-09-29T02:41:01;94244.41;;;21.53;48.35
14393;BME280;7281;42.678;23.372;2022-09-29T02:43:46;94237.06;;;21.50;47.32
14393;BME280;7281;42.678;23.372;2022-09-29T02:51:41;94226.91;;;21.40;48.43
14393;BME280;7281;42.678;23.372;2022-09-29T02:54:18;94228.94;;;21.31;47.67
14393;BME280;7281;42.678;23.372;2022-09-29T02:57:23;94223.03;;;20.61;49.40
14393;BME280;7281;42.678;23.372;2022-09-29T03:00:09;94245.97;;;20.90;49.08
14393;BME280;7281;42.678;23.372;2022-09-29T03:02:39;94239.88;;;20.89;49.25
14393;BME280;7281;42.678;23.372;2022-09-29T03:05:11;94238.44;;;20.68;49.37
14393;BME280;7281;42.678;23.372;2022-09-29T03:07:40;94225.50;;;20.54;50.00
14393;BME280;7281;42.678;23.372;2022-09-29T03:10:10;94210.38;;;20.70;49.70
14393;BME280;7281;42.678;23.372;2022-09-29T03:12:37;94181.84;;;20.83;49.27
14393;BME280;7281;42.678;23.372;2022-09-29T03:15:05;94181.13;;;20.58;49.35
14393;BME280;7281;42.678;23.372;2022-09-29T03:17:33;94192.44;;;20.67;48.42
14393;BME280;7281;42.678;23.372;2022-09-29T03:20:00;94198.31;;;20.73;48.05
14393;BME280;7281;42.678;23.372;2022-09-29T03:22:27;94195.03;;;20.91;47.74
14393;BME280;7281;42.678;23.372;2022-09-29T03:24:54;94194.94;;;21.00;47.48
14393;BME280;7281;42.678;23.372;2022-09-29T03:27:21;94207.97;;;20.65;48.03
14393;BME280;7281;42.678;23.372;2022-09-29T03:29:48;94226.13;;;20.51;48.19
14393;BME280;7281;42.678;23.372;2022-09-29T03:32:16;94231.25;;;20.68;47.89
14393;BME280;7281;42.678;23.372;2022-09-29T03:34:43;94243.91;;;20.47;48.67
14393;BME280;7281;42.678;23.372;2022-09-29T03:37:11;94225.91;;;21.04;47.66
14393;BME280;7281;42.678;23.372;2022-09-29T03:39:38;94220.22;;;20.94;47.98
14393;BME280;7281;42.678;23.372;2022-09-29T03:42:05;94216.91;;;21.09;47.91
14393;BME280;7281;42.678;23.372;2022-09-29T03:44:32;94232.53;;;20.98;47.82
14393;BME280;7281;42.678;23.372;2022-09-29T03:46:58;94238.56;;;20.71;48.77
14393;BME280;7281;42.678;23.372;2022-09-29T03:49:26;94249.41;;;20.78;48.67
14393;BME280;7281;42.678;23.372;2022-09-29T03:51:53;94261.31;;;20.45;49.23
14393;BME280;7281;42.678;23.372;2022-09-29T03:54:19;94250.78;;;20.72;48.77
14393;BME280;7281;42.678;23.372;2022-09-29T03:56:46;94254.97;;;20.37;49.67
14393;BME280;7281;42.678;23.372;2022-09-29T03:59:13;94245.31;;;20.57;49.10
14393;BME280;7281;42.678;23.372;2022-09-29T04:01:41;94243.88;;;20.23;48.99
14393;BME280;7281;42.678;23.372;2022-09-29T04:04:08;94244.88;;;20.31;48.54
14393;BME280;7281;42.678;23.372;2022-09-29T04:06:36;94243.22;;;20.26;48.93
14393;BME280;7281;42.678;23.372;2022-09-29T04:09:03;94237.22;;;20.53;48.21
14393;BME280;7281;42.678;23.372;2022-09-29T04:11:30;94252.66;;;20.36;48.28
14393;BME280;7281;42.678;23.372;2022-09-29T04:13:56;94251.25;;;19.73;49.85
14393;BME280;7281;42.678;23.372;2022-09-29T04:16:23;94249.47;;;20.09;49.06
14393;BME280;7281;42.678;23.372;2022-09-29T04:18:50;94245.66;;;20.31;48.63
14393;BME280;7281;42.678;23.372;2022-09-29T04:21:17;94247.53;;;20.18;48.65
14393;BME280;7281;42.678;23.372;2022-09-29T04:23:45;94243.72;;;19.75;49.45
14393;BME280;7281;42.678;23.372;2022-09-29T04:26:12;94246.00;;;19.85;49.70
14393;BME280;7281;42.678;23.372;2022-09-29T04:28:39;94252.00;;;19.94;49.70
14393;BME280;7281;42.678;23.372;2022-09-29T04:31:07;94245.47;;;19.71;49.06
14393;BME280;7281;42.678;23.372;2022-09-29T04:33:34;94241.84;;;19.43;49.95
14393;BME280;7281;42.678;23.372;2022-09-29T04:36:01;94232.75;;;19.44;50.81
14393;BME280;7281;42.678;23.372;2022-09-29T04:38:27;94248.03;;;19.05;50.80
14393;BME280;7281;42.678;23.372;2022-09-29T04:40:55;94265.66;;;18.89;50.79
14393;BME280;7281;42.678;23.372;2022-09-29T04:43:22;94274.06;;;18.16;52.83
14393;BME280;7281;42.678;23.372;2022-09-29T04:45:49;94252.19;;;18.65;51.83
14393;BME280;7281;42.678;23.372;2022-09-29T04:48:16;94250.28;;;19.45;50.21
14393;BME280;7281;42.678;23.372;2022-09-29T04:50:43;94239.91;;;19.52;49.32
14393;BME280;7281;42.678;23.372;2022-09-29T04:53:10;94230.88;;;19.65;48.99
14393;BME280;7281;42.678;23.372;2022-09-29T04:55:37;94249.38;;;19.41;49.17
14393;BME280;7281;42.678;23.372;2022-09-29T04:58:04;94242.47;;;19.60;48.91
14393;BME280;7281;42.678;23.372;2022-09-29T05:00:32;94245.47;;;19.71;48.72
14393;BME280;7281;42.678;23.372;2022-09-29T05:02:59;94251.38;;;19.76;48.65
14393;BME280;7281;42.678;23.372;2022-09-29T05:05:26;94243.16;;;19.37;49.52
14393;BME280;7281;42.678;23.372;2022-09-29T05:07:53;94233.09;;;19.75;48.87
14393;BME280;7281;42.678;23.372;2022-09-29T05:10:20;94235.19;;;20.14;48.21
14393;BME280;7281;42.678;23.372;2022-09-29T05:12:48;94223.72;;;19.89;48.48
14393;BME280;7281;42.678;23.372;2022-09-29T05:15:18;94224.31;;;20.07;48.39
14393;BME280;7281;42.678;23.372;2022-09-29T05:17:51;94222.53;;;19.99;47.99
14393;BME280;7281;42.678;23.372;2022-09-29T05:20:18;94217.66;;;20.01;48.02
14393;BME280;7281;42.678;23.372;2022-09-29T05:22:45;94239.91;;;20.53;47.06
14393;BME280;7281;42.678;23.372;2022-09-29T05:25:12;94253.00;;;20.70;46.83
14393;BME280;7281;42.678;23.372;2022-09-29T05:27:38;94249.97;;;20.36;47.66
14393;BME280;7281;42.678;23.372;2022-09-29T05:30:06;94228.47;;;20.41;47.59
14393;BME280;7281;42.678;23.372;2022-09-29T05:32:32;94235.84;;;20.11;49.48
14393;BME280;7281;42.678;23.372;2022-09-29T05:34:59;94240.44;;;20.35;49.10
14393;BME280;7281;42.678;23.372;2022-09-29T05:37:26;94237.00;;;20.70;48.23
14393;BME280;7281;42.678;23.372;2022-09-29T05:39:53;94226.38;;;20.70;47.37
14393;BME280;7281;42.678;23.372;2022-09-29T05:42:20;94229.88;;;20.86;46.96
14393;BME280;7281;42.678;23.372;2022-09-29T05:44:47;94238.22;;;20.37;47.33
14393;BME280;7281;42.678;23.372;2022-09-29T05:47:14;94236.31;;;20.97;46.55
14393;BME280;7281;42.678;23.372;2022-09-29T05:49:40;94236.53;;;20.80;47.35
14393;BME280;7281;42.678;23.372;2022-09-29T05:52:07;94243.66;;;21.12;46.79
14393;BME280;7281;42.678;23.372;2022-09-29T05:54:34;94251.69;;;21.28;46.46
14393;BME280;7281;42.678;23.372;2022-09-29T05:57:01;94258.16;;;21.15;45.97
14393;BME280;7281;42.678;23.372;2022-09-29T05:59:28;94261.41;;;20.96;46.72
14393;BME280;7281;42.678;23.372;2022-09-29T06:01:55;94268.06;;;21.14;45.85
14393;BME280;7281;42.678;23.372;2022-09-29T06:04:22;94257.84;;;21.04;45.40
14393;BME280;7281;42.678;23.372;2022-09-29T06:06:49;94251.03;;;21.59;45.08
14393;BME280;7281;42.678;23.372;2022-09-29T06:09:16;94246.88;;;21.46;45.52
14393;BME280;7281;42.678;23.372;2022-09-29T06:11:43;94268.44;;;21.80;45.36
14393;BME280;7281;42.678;23.372;2022-09-29T06:14:10;94278.03;;;21.17;46.81
14393;BME280;7281;42.678;23.372;2022-09-29T06:16:37;94286.22;;;21.37;45.29
14393;BME280;7281;42.678;23.372;2022-09-29T06:19:04;94286.31;;;21.68;44.90
14393;BME280;7281;42.678;23.372;2022-09-29T06:21:31;94268.81;;;21.94;44.98
14393;BME280;7281;42.678;23.372;2022-09-29T06:24:01;94271.66;;;21.74;46.45
14393;BME280;7281;42.678;23.372;2022-09-29T06:26:28;94276.84;;;21.55;46.99
14393;BME280;7281;42.678;23.372;2022-09-29T06:28:55;94272.31;;;21.83;47.02
14393;BME280;7281;42.678;23.372;2022-09-29T06:31:25;94272.00;;;22.00;46.64
14393;BME280;7281;42.678;23.372;2022-09-29T06:33:56;94272.66;;;22.40;45.74
14393;BME280;7281;42.678;23.372;2022-09-29T06:36:30;94272.22;;;22.38;45.07
14393;BME280;7281;42.678;23.372;2022-09-29T06:39:18;94283.34;;;21.97;45.63
14393;BME280;7281;42.678;23.372;2022-09-29T06:41:45;94282.66;;;22.28;45.90
14393;BME280;7281;42.678;23.372;2022-09-29T06:44:22;94288.78;;;22.90;44.72
14393;BME280;7281;42.678;23.372;2022-09-29T06:46:53;94284.91;;;21.98;46.27
14393;BME280;7281;42.678;23.372;2022-09-29T06:49:20;94276.25;;;22.32;46.08
14393;BME280;7281;42.678;23.372;2022-09-29T06:51:48;94282.66;;;22.28;46.26
14393;BME280;7281;42.678;23.372;2022-09-29T06:54:19;94265.69;;;22.51;44.89
14393;BME280;7281;42.678;23.372;2022-09-29T06:56:48;94285.50;;;22.81;44.46
14393;BME280;7281;42.678;23.372;2022-09-29T06:59:16;94292.06;;;22.84;44.23
14393;BME280;7281;42.678;23.372;2022-09-29T07:01:43;94284.16;;;22.56;44.79
14393;BME280;7281;42.678;23.372;2022-09-29T07:04:18;94301.03;;;22.91;44.18
14393;BME280;7281;42.678;23.372;2022-09-29T07:06:46;94290.50;;;22.98;44.18
14393;BME280;7281;42.678;23.372;2022-09-29T07:09:14;94295.06;;;22.98;44.31
14393;BME280;7281;42.678;23.372;2022-09-29T07:11:43;94307.22;;;22.95;44.11
14393;BME280;7281;42.678;23.372;2022-09-29T07:14:14;94317.34;;;23.37;42.92
14393;BME280;7281;42.678;23.372;2022-09-29T07:16:42;94304.44;;;22.92;44.23
14393;BME280;7281;42.678;23.372;2022-09-29T07:19:09;94298.50;;;22.52;46.00
14393;BME280;7281;42.678;23.372;2022-09-29T07:21:36;94298.81;;;23.12;44.27
14393;BME280;7281;42.678;23.372;2022-09-29T07:24:03;94296.31;;;23.20;44.77
14393;BME280;7281;42.678;23.372;2022-09-29T07:26:30;94287.66;;;23.42;43.38
14393;BME280;7281;42.678;23.372;2022-09-29T07:28:57;94288.38;;;23.39;43.65
14393;BME280;7281;42.678;23.372;2022-09-29T07:31:24;94281.84;;;23.55;44.04
14393;BME280;7281;42.678;23.372;2022-09-29T07:33:51;94282.75;;;22.93;45.06
14393;BME280;7281;42.678;23.372;2022-09-29T07:36:19;94290.91;;;23.51;43.49
14393;BME280;7281;42.678;23.372;2022-09-29T07:38:48;94285.00;;;23.61;44.15
14393;BME280;7281;42.678;23.372;2022-09-29T07:41:18;94298.44;;;23.83;43.36
14393;BME280;7281;42.678;23.372;2022-09-29T07:43:46;94298.38;;;23.61;43.92
14393;BME280;7281;42.678;23.372;2022-09-29T07:46:12;94303.31;;;23.08;45.55
14393;BME280;7281;42.678;23.372;2022-09-29T07:48:40;94305.63;;;23.26;44.85
14393;BME280;7281;42.678;23.372;2022-09-29T07:51:12;94292.13;;;23.91;42.71
14393;BME280;7281;42.678;23.372;2022-09-29T07:53:40;94292.69;;;23.62;43.16
14393;BME280;7281;42.678;23.372;2022-09-29T07:56:15;94296.59;;;24.03;42.41
14393;BME280;7281;42.678;23.372;2022-09-29T07:58:45;94301.81;;;24.38;42.40
14393;BME280;7281;42.678;23.372;2022-09-29T08:01:13;94295.19;;;24.54;42.31
14393;BME280;7281;42.678;23.372;2022-09-29T08:03:43;94312.34;;;24.08;43.42
14393;BME280;7281;42.678;23.372;2022-09-29T08:06:12;94316.81;;;23.85;43.25
14393;BME280;7281;42.678;23.372;2022-09-29T08:08:41;94310.25;;;23.63;43.93
14393;BME280;7281;42.678;23.372;2022-09-29T08:11:22;94291.84;;;24.38;41.90
14393;BME280;7281;42.678;23.372;2022-09-29T08:13:57;94308.72;;;24.84;40.02
14393;BME280;7281;42.678;23.372;2022-09-29T08:16:24;94320.63;;;24.64;40.88
14393;BME280;7281;42.678;23.372;2022-09-29T08:18:51;94328.94;;;24.59;42.08
14393;BME280;7281;42.678;23.372;2022-09-29T08:21:18;94316.69;;;24.16;43.49
14393;BME280;7281;42.678;23.372;2022-09-29T08:23:44;94329.88;;;24.25;43.13
14393;BME280;7281;42.678;23.372;2022-09-29T08:26:14;94326.47;;;24.92;41.57
14393;BME280;7281;42.678;23.372;2022-09-29T08:28:42;94307.91;;;25.29;39.50
14393;BME280;7281;42.678;23.372;2022-09-29T08:31:14;94318.25;;;25.04;38.31
14393;BME280;7281;42.678;23.372;2022-09-29T08:33:46;94330.94;;;24.84;39.67
14393;BME280;7281;42.678;23.372;2022-09-29T08:36:16;94336.66;;;25.32;39.30
14393;BME280;7281;42.678;23.372;2022-09-29T08:38:46;94329.66;;;25.50;37.91
14393;BME280;7281;42.678;23.372;2022-09-29T08:44:26;94314.72;;;26.08;37.62
14393;BME280;7281;42.678;23.372;2022-09-29T08:49:52;94323.94;;;26.07;36.13
14393;BME280;7281;42.678;23.372;2022-09-29T08:52:24;94318.50;;;25.74;38.36
14393;BME280;7281;42.678;23.372;2022-09-29T08:54:55;94323.59;;;26.12;37.59
14393;BME280;7281;42.678;23.372;2022-09-29T08:57:27;94311.09;;;25.97;38.50
14393;BME280;7281;42.678;23.372;2022-09-29T08:59:58;94303.16;;;26.77;37.33
14393;BME280;7281;42.678;23.372;2022-09-29T09:05:38;94317.00;;;26.43;37.57
14393;BME280;7281;42.678;23.372;2022-09-29T09:08:36;94316.19;;;26.75;37.27
14393;BME280;7281;42.678;23.372;2022-09-29T09:22:49;94301.97;;;27.87;34.90
14393;BME280;7281;42.678;23.372;2022-09-29T09:25:30;94306.28;;;27.95;34.19
14393;BME280;7281;42.678;23.372;2022-09-29T09:28:18;94307.66;;;28.61;33.59
14393;BME280;7281;42.678;23.372;2022-09-29T09:30:52;94310.28;;;28.50;31.15
14393;BME280;7281;42.678;23.372;2022-09-29T09:33:40;94312.94;;;28.40;33.03
14393;BME280;7281;42.678;23.372;2022-09-29T09:36:14;94303.44;;;28.95;32.45
14393;BME280;7281;42.678;23.372;2022-09-29T09:39:05;94294.56;;;28.73;31.25
14393;BME280;7281;42.678;23.372;2022-09-29T09:41:38;94290.72;;;29.17;31.33
14393;BME280;7281;42.678;23.372;2022-09-29T09:44:16;94289.16;;;28.87;32.31
14393;BME280;7281;42.678;23.372;2022-09-29T09:49:36;94300.75;;;29.34;31.11
14393;BME280;7281;42.678;23.372;2022-09-29T09:52:36;94300.00;;;29.16;30.40
14393;BME280;7281;42.678;23.372;2022-09-29T09:55:26;94300.72;;;29.41;30.43
14393;BME280;7281;42.678;23.372;2022-09-29T09:58:49;94301.50;;;28.99;30.97
14393;BME280;7281;42.678;23.372;2022-09-29T10:01:18;94296.09;;;29.31;28.97
14393;BME280;7281;42.678;23.372;2022-09-29T10:03:45;94306.13;;;29.20;29.77
14393;BME280;7281;42.678;23.372;2022-09-29T10:06:12;94307.56;;;28.50;31.82
14393;BME280;7281;42.678;23.372;2022-09-29T10:08:40;94310.69;;;28.56;30.31
14393;BME280;7281;42.678;23.372;2022-09-29T10:11:23;94303.06;;;29.18;30.46
14393;BME280;7281;42.678;23.372;2022-09-29T10:13:57;94297.66;;;29.35;29.00
14393;BME280;7281;42.678;23.372;2022-09-29T10:16:29;94304.19;;;28.81;29.66
14393;BME280;7281;42.678;23.372;2022-09-29T10:18:58;94292.66;;;29.34;29.54
14393;BME280;7281;42.678;23.372;2022-09-29T10:23:53;94289.94;;;29.20;29.88
14393;BME280;7281;42.678;23.372;2022-09-29T10:32:30;94292.56;;;29.79;28.53
14393;BME280;7281;42.678;23.372;2022-09-29T10:37:46;94288.31;;;29.68;28.61
14393;BME280;7281;42.678;23.372;2022-09-29T10:40:16;94306.13;;;28.74;27.60
14393;BME280;7281;42.678;23.372;2022-09-29T10:42:45;94297.66;;;29.32;29.55
14393;BME280;7281;42.678;23.372;2022-09-29T10:45:22;94294.53;;;29.58;26.61
14393;BME280;7281;42.678;23.372;2022-09-29T10:50:33;94288.91;;;30.21;26.36
14393;BME280;7281;42.678;23.372;2022-09-29T10:53:20;94289.72;;;30.08;29.43
14393;BME280;7281;42.678;23.372;2022-09-29T10:55:52;94282.44;;;30.73;28.79
14393;BME280;7281;42.678;23.372;2022-09-29T10:58:30;94283.03;;;30.37;27.59
14393;BME280;7281;42.678;23.372;2022-09-29T11:01:15;94278.63;;;30.67;27.78
14393;BME280;7281;42.678;23.372;2022-09-29T11:03:53;94284.31;;;30.11;29.01
14393;BME280;7281;42.678;23.372;2022-09-29T11:06:28;94285.00;;;30.36;25.74
14393;BME280;7281;42.678;23.372;2022-09-29T11:09:03;94273.66;;;29.76;26.83
14393;BME280;7281;42.678;23.372;2022-09-29T11:11:31;94272.19;;;29.36;28.38
14393;BME280;7281;42.678;23.372;2022-09-29T11:13:59;94272.09;;;29.82;26.07
14393;BME280;7281;42.678;23.372;2022-09-29T11:16:36;94274.03;;;29.64;26.14
14393;BME280;7281;42.678;23.372;2022-09-29T11:19:06;94276.03;;;29.42;27.02
14393;BME280;7281;42.678;23.372;2022-09-29T11:30:11;94266.44;;;29.10;27.46
14393;BME280;7281;42.678;23.372;2022-09-29T11:38:37;94259.06;;;29.49;27.08
14393;BME280;7281;42.678;23.372;2022-09-29T11:43:53;94266.78;;;29.40;28.91
14393;BME280;7281;42.678;23.372;2022-09-29T11:46:47;94256.00;;;29.43;30.37
14393;BME280;7281;42.678;23.372;2022-09-29T11:49:35;94259.09;;;29.28;29.80
14393;BME280;7281;42.678;23.372;2022-09-29T12:00:18;94262.19;;;29.09;28.42
14393;BME280;7281;42.678;23.372;2022-09-29T12:08:58;94259.09;;;28.92;28.41
14393;BME280;7281;42.678;23.372;2022-09-29T12:12:11;94266.06;;;29.01;29.00
14393;BME280;7281;42.678;23.372;2022-09-29T12:17:29;94263.63;;;28.18;29.05
14393;BME280;7281;42.678;23.372;2022-09-29T12:20:15;94261.75;;;28.50;28.87
14393;BME280;7281;42.678;23.372;2022-09-29T12:22:44;94250.63;;;28.48;28.35
14393;BME280;7281;42.678;23.372;2022-09-29T12:25:21;94254.25;;;27.77;28.83
14393;BME280;7281;42.678;23.372;2022-09-29T12:27:54;94248.22;;;28.08;28.39
14393;BME280;7281;42.678;23.372;2022-09-29T12:30:27;94250.97;;;28.40;28.02
14393;BME280;7281;42.678;23.372;2022-09-29T12:33:06;94255.47;;;27.90;28.19
14393;BME280;7281;42.678;23.372;2022-09-29T12:38:34;94256.81;;;27.52;28.06
14393;BME280;7281;42.678;23.372;2022-09-29T12:46:32;94262.81;;;28.04;27.50
14393;BME280;7281;42.678;23.372;2022-09-29T12:51:41;94251.03;;;27.47;28.37
14393;BME280;7281;42.678;23.372;2022-09-29T12:54:21;94265.00;;;27.73;28.11
14393;BME280;7281;42.678;23.372;2022-09-29T13:02:32;94245.66;;;29.14;26.67
14393;BME280;7281;42.678;23.372;2022-09-29T13:27:50;94259.59;;;27.70;28.57
14393;BME280;7281;42.678;23.372;2022-09-29T13:30:27;94261.56;;;27.76;28.39
14393;BME280;7281;42.678;23.372;2022-09-29T13:33:20;94265.03;;;27.77;28.43
14393;BME280;7281;42.678;23.372;2022-09-29T13:35:49;94259.13;;;28.54;27.73
14393;BME280;7281;42.678;23.372;2022-09-29T13:51:55;94268.75;;;28.86;27.57
14393;BME280;7281;42.678;23.372;2022-09-29T13:59:44;94264.25;;;27.80;29.75
14393;BME280;7281;42.678;23.372;2022-09-29T14:04:51;94279.50;;;27.48;30.10
14393;BME280;7281;42.678;23.372;2022-09-29T14:07:46;94284.16;;;27.58;30.36
14393;BME280;7281;42.678;23.372;2022-09-29T14:13:24;94292.16;;;28.26;29.65
14393;BME280;7281;42.678;23.372;2022-09-29T14:21:44;94283.59;;;27.99;30.05
14393;BME280;7281;42.678;23.372;2022-09-29T14:24:00;94293.28;;;28.22;29.90
14393;BME280;7281;42.678;23.372;2022-09-29T14:26:53;94300.00;;;27.70;30.06
14393;BME280;7281;42.678;23.372;2022-09-29T14:29:27;94310.88;;;27.30;30.50
14393;BME280;7281;42.678;23.372;2022-09-29T14:31:56;94326.03;;;27.04;30.94
14393;BME280;7281;42.678;23.372;2022-09-29T14:34:27;94344.38;;;26.92;31.61
14393;BME280;7281;42.678;23.372;2022-09-29T14:36:57;94351.00;;;27.01;32.60
14393;BME280;7281;42.678;23.372;2022-09-29T14:39:26;94386.44;;;26.70;33.87
14393;BME280;7281;42.678;23.372;2022-09-29T14:41:55;94388.81;;;26.13;38.40
14393;BME280;7281;42.678;23.372;2022-09-29T14:44:25;94404.69;;;25.69;41.22
14393;BME280;7281;42.678;23.372;2022-09-29T14:53:49;94420.25;;;24.31;43.00
14393;BME280;7281;42.678;23.372;2022-09-29T14:56:34;94418.13;;;24.78;43.67
14393;BME280;7281;42.678;23.372;2022-09-29T14:59:10;94415.22;;;25.09;44.02
14393;BME280;7281;42.678;23.372;2022-09-29T15:04:38;94404.53;;;23.10;48.46
14393;BME280;7281;42.678;23.372;2022-09-29T15:07:10;94399.81;;;24.04;48.59
14393;BME280;7281;42.678;23.372;2022-09-29T15:09:44;94404.88;;;23.55;49.89
14393;BME280;7281;42.678;23.372;2022-09-29T15:12:18;94398.09;;;23.96;49.09
14393;BME280;7281;42.678;23.372;2022-09-29T15:14:46;94389.53;;;24.25;49.29
14393;BME280;7281;42.678;23.372;2022-09-29T15:25:53;94383.75;;;25.52;47.43
14393;BME280;7281;42.678;23.372;2022-09-29T15:28:36;94385.78;;;25.36;45.95
14393;BME280;7281;42.678;23.372;2022-09-29T15:31:09;94387.00;;;25.16;47.37
14393;BME280;7281;42.678;23.372;2022-09-29T15:33:38;94389.06;;;25.26;48.33
14393;BME280;7281;42.678;23.372;2022-09-29T15:36:24;94392.72;;;25.14;49.21
14393;BME280;7281;42.678;23.372;2022-09-29T15:38:53;94391.78;;;24.61;48.34
14393;BME280;7281;42.678;23.372;2022-09-29T15:41:21;94419.28;;;24.01;50.46
14393;BME280;7281;42.678;23.372;2022-09-29T15:43:59;94425.88;;;24.07;51.62
14393;BME280;7281;42.678;23.372;2022-09-29T15:51:31;94428.75;;;23.64;53.28
14393;BME280;7281;42.678;23.372;2022-09-29T15:54:01;94421.00;;;23.78;52.88
14393;BME280;7281;42.678;23.372;2022-09-29T15:56:30;94425.63;;;24.12;51.38
14393;BME280;7281;42.678;23.372;2022-09-29T15:58:58;94422.94;;;24.12;51.34
14393;BME280;7281;42.678;23.372;2022-09-29T16:01:26;94425.09;;;23.72;51.91
14393;BME280;7281;42.678;23.372;2022-09-29T16:03:58;94422.78;;;24.05;51.39
14393;BME280;7281;42.678;23.372;2022-09-29T16:06:32;94416.88;;;24.15;50.39
14393;BME280;7281;42.678;23.372;2022-09-29T16:09:17;94414.97;;;24.35;49.94
14393;BME280;7281;42.678;23.372;2022-09-29T16:11:45;94413.50;;;24.37;49.42
14393;BME280;7281;42.678;23.372;2022-09-29T16:14:22;94428.56;;;24.64;50.33
14393;BME280;7281;42.678;23.372;2022-09-29T16:16:54;94424.13;;;24.53;49.93
14393;BME280;7281;42.678;23.372;2022-09-29T16:19:28;94442.50;;;24.16;50.77
14393;BME280;7281;42.678;23.372;2022-09-29T16:21:59;94450.50;;;23.47;52.52
14393;BME280;7281;42.678;23.372;2022-09-29T16:24:33;94454.72;;;23.17;53.97
14393;BME280;7281;42.678;23.372;2022-09-29T16:27:01;94459.19;;;23.12;53.43
14393;BME280;7281;42.678;23.372;2022-09-29T16:29:35;94468.59;;;23.22;54.09
14393;BME280;7281;42.678;23.372;2022-09-29T16:32:42;94481.19;;;23.22;54.09
14393;BME280;7281;42.678;23.372;2022-09-29T16:40:53;94519.69;;;23.33;51.75
14393;BME280;7281;42.678;23.372;2022-09-29T16:43:27;94540.00;;;22.66;53.67
14393;BME280;7281;42.678;23.372;2022-09-29T16:45:58;94544.28;;;23.10;53.26
14393;BME280;7281;42.678;23.372;2022-09-29T16:48:35;94566.31;;;22.64;55.57
14393;BME280;7281;42.678;23.372;2022-09-29T16:51:17;94557.81;;;21.86;58.68